Cape Elizabeth, ME (04107)

6:24 AM EST on December 22, 2014 (GMT -0500)
Bulldog | Change Station
CLOSE
Current Station
Personal Weather Station
Location: Cape Elizabeth, ME
Elevation: 49 ft
Nearby Weather Stations

Elev 49 ft 43.58 °N, 70.23 °W | Updated 4 minutes ago

Overcast
Overcast
30.1 °F
Feels Like 30 °F
N
1.0
Wind Variable Wind from North
Gusts 1.0 mph

Today
High -- | Low -- °F
--% Chance of Precip.
Yesterday
High -- | Low -- °F
Precip. -- in
7:11 AM 4:07 PM
New Moon, 0% visible
Pressure 30.41 in
Visibility 10.0 miles
Clouds Overcast 5500 ft
Windchill 30 °F
Dew Point 27 °F
Humidity 88%
Rainfall 0.00 in
Snow Depth Not available.
UV 0.0 out of 12
Pollen .10 out of 12
Air Quality Not available.
Flu Activity Not available.
METAR KPWM 221051Z 33006KT 10SM OVC055 M01/M04 A3041 RMK AO2 SLP297 T10061039

More Conditions Fewer Conditions

Pressure 30.41 in
Visibility 10.0 miles
Clouds Overcast 5500 ft
Windchill 30 °F
Dew Point 27 °F
Humidity 88%
Rainfall 0.00 in
Snow Depth Not available.
UV 0.0 out of 12
Pollen .10 out of 12
Air Quality Not available.
Flu Activity Not available.
METAR KPWM 221051Z 33006KT 10SM OVC055 M01/M04 A3041 RMK AO2 SLP297 T10061039

More Conditions Fewer Conditions

10-Day Weather Forecast

Almanac

Astronomy

Dec. 22, 2014 Rise Set
Actual Time
Civil Twilight
Nautical Twilight
Astronomical Twilight
Moon
Length of Visible Light
Length of Day
Tomorrow will be .
, % of the Moon is Illuminated

Today's Extremes

State Highs State Lows

Community

WunderPhotos

Upload Photos

1,779,587 photos uploaded!

WunderBlogs® & News

Nearby

Air Quality

  Air Quality AQ Index Pollutant
Not available.

Snow Depth

Station Depth Elevation

Earthquake Activity

City Distance Mag. Time & Date
Minimum magnitude displayed is 2.5.

Coastal Water Temperatures

Place Temperature

Nearby Weather Stations